Time;durP1;ratioP1;P1;durP2;ratioP2;P2;SDS_P1;SDS_P2;PMS_P1;PMS_P2;Temp;Humidity;BMP_temperature;BMP_pressure;BME280_temperature;BME280_humidity;BME280_pressure;Samples;Min_cycle;Max_cycle;Signal;HPM_P1;HPM_P2
2022/04/27 00:04:12;;;;;;;5.10;4.60;;;;;;;6.86;100.00;98639.47;10342446;28;20648;-77
2022/04/27 00:09:45;;;;;;;5.13;4.43;;;;;;;6.82;100.00;98638.03;10351306;28;20544;-77
2022/04/27 00:14:48;;;;;;;;;;;;;;;6.76;100.00;98636.72;10410319;28;20050;-77
2022/04/27 00:19:52;;;;;;;6.30;4.55;;;;;;;6.68;100.00;98639.22;10345737;28;19929;-77
2022/04/27 00:25:00;;;;;;;4.75;4.35;;;;;;;6.65;100.00;98639.47;10178753;28;5001036;-77
2022/04/27 00:30:04;;;;;;;5.20;4.70;;;;;;;6.60;100.00;98633.69;10364659;28;20041;-77
2022/04/27 00:35:09;;;;;;;4.65;4.25;;;;;;;6.50;100.00;98633.63;10364869;28;20056;-77
2022/04/27 00:40:13;;;;;;;4.63;4.22;;;;;;;6.43;100.00;98633.28;10350004;28;21048;-77
2022/04/27 00:45:20;;;;;;;5.00;4.50;;;;;;;6.34;100.00;98642.09;10350352;28;20208;-77
2022/04/27 00:50:24;;;;;;;6.22;5.63;;;;;;;6.27;100.00;98644.44;10354070;28;20137;-77
2022/04/27 00:55:29;;;;;;;7.03;5.95;;;;;;;6.24;100.00;98651.88;10348093;28;20468;-77
2022/04/27 01:00:33;;;;;;;7.45;6.20;;;;;;;6.19;100.00;98664.78;10348076;28;20120;-77
2022/04/27 01:05:38;;;;;;;7.63;6.65;;;;;;;6.12;100.00;98670.63;10340457;28;20053;-77
2022/04/27 01:10:43;;;;;;;5.50;5.00;;;;;;;6.06;100.00;98665.78;10347205;28;20132;-77
2022/04/27 01:15:47;;;;;;;6.68;5.57;;;;;;;5.99;100.00;98667.25;10352010;28;20128;-77
2022/04/27 01:20:51;;;;;;;6.63;6.03;;;;;;;5.93;100.00;98681.13;10349308;28;20050;-77
2022/04/27 01:25:57;;;;;;;8.50;7.60;;;;;;;5.86;100.00;98678.94;10348792;28;20149;-78
2022/04/27 01:31:02;;;;;;;9.63;8.52;;;;;;;5.79;100.00;98691.13;10374570;28;20054;-77
2022/04/27 01:36:09;;;;;;;10.75;8.70;;;;;;;5.76;100.00;98696.72;10372718;28;20069;-77
2022/04/27 01:41:12;;;;;;;7.93;6.97;;;;;;;5.70;100.00;98699.88;10355706;28;20084;-77
2022/04/27 01:46:15;;;;;;;6.82;6.20;;;;;;;5.60;100.00;98701.56;10356944;28;20080;-77
2022/04/27 01:54:14;;;;;;;6.30;5.70;;;;;;;5.51;100.00;98708.53;10356627;28;20751;-78
2022/04/27 01:56:47;;;;;;;5.47;4.97;;;;;;;5.43;100.00;98703.78;10354610;28;20057;-77
2022/04/27 02:01:50;;;;;;;6.82;5.70;;;;;;;5.36;100.00;98700.75;10364531;28;20042;-77
2022/04/27 02:06:55;;;;;;;7.90;5.55;;;;;;;5.27;100.00;98701.47;10351490;28;20046;-77
2022/04/27 02:12:04;;;;;;;6.20;5.60;;;;;;;5.20;100.00;98701.09;10363215;28;21099;-77
2022/04/27 02:17:10;;;;;;;6.88;6.18;;;;;;;5.15;100.00;98699.75;10368352;28;20045;-78
2022/04/27 02:22:15;;;;;;;6.60;6.00;;;;;;;5.08;100.00;98707.41;10374681;28;21172;-78
2022/04/27 02:27:19;;;;;;;6.53;5.85;;;;;;;5.01;100.00;98707.03;10360878;28;20056;-78
2022/04/27 02:32:23;;;;;;;6.68;6.03;;;;;;;4.96;100.00;98709.19;10359946;28;20112;-78
2022/04/27 02:37:27;;;;;;;7.05;6.35;;;;;;;4.93;100.00;98717.47;10356405;28;20044;-78
2022/04/27 02:42:34;;;;;;;8.05;7.30;;;;;;;4.84;100.00;98711.00;10371672;28;20081;-78
2022/04/27 02:47:38;;;;;;;7.70;7.00;;;;;;;4.80;100.00;98714.88;10356641;28;20081;-78
2022/04/27 02:52:42;;;;;;;7.30;6.60;;;;;;;4.76;100.00;98722.25;10362958;28;20105;-79
2022/04/27 02:57:53;;;;;;;8.10;7.30;;;;;;;4.73;100.00;98735.84;10360234;28;20167;-78
2022/04/27 03:02:59;;;;;;;9.07;7.82;;;;;;;4.70;100.00;98728.06;10361578;28;20498;-78
2022/04/27 03:08:06;;;;;;;8.48;7.68;;;;;;;4.66;100.00;98731.06;10376744;28;20046;-79
2022/04/27 03:13:18;;;;;;;7.18;6.47;;;;;;;4.65;100.00;98732.03;10369838;28;20139;-77
2022/04/27 03:18:25;;;;;;;9.13;7.25;;;;;;;4.59;100.00;98744.03;10364578;28;20030;-83
2022/04/27 03:23:29;;;;;;;8.57;7.70;;;;;;;4.54;100.00;98757.72;10391000;28;20042;-80
2022/04/27 03:28:34;;;;;;;16.33;12.15;;;;;;;4.43;100.00;98776.34;10369402;28;20046;-82
2022/04/27 03:33:39;;;;;;;15.30;11.70;;;;;;;4.34;100.00;98787.69;10370769;28;20045;-82
2022/04/27 03:38:44;;;;;;;10.68;9.68;;;;;;;4.30;100.00;98782.56;10353749;28;20156;-79
2022/04/27 03:43:49;;;;;;;9.30;8.40;;;;;;;4.27;100.00;98793.50;10373709;28;20046;-80
2022/04/27 03:48:53;;;;;;;7.50;6.80;;;;;;;4.21;100.00;98798.41;10356175;28;20391;-80
2022/04/27 03:53:57;;;;;;;5.28;4.78;;;;;;;4.16;100.00;98801.41;10353380;28;20038;-84
2022/04/27 03:59:01;;;;;;;5.32;4.88;;;;;;;4.10;100.00;98809.84;10381280;28;20069;-83
2022/04/27 04:04:05;;;;;;;4.75;4.35;;;;;;;4.05;100.00;98818.19;10381486;28;20513;-81
2022/04/27 04:09:09;;;;;;;5.57;5.07;;;;;;;3.98;100.00;98820.44;10369341;28;20518;-82
2022/04/27 04:14:13;;;;;;;5.28;4.88;;;;;;;3.97;100.00;98826.72;10384019;28;20046;-83
2022/04/27 04:19:25;;;;;;;5.45;4.95;;;;;;;3.92;100.00;98841.34;10411115;28;20053;-81
2022/04/27 04:30:23;;;;;;;5.13;4.60;;;;;;;3.88;100.00;98851.38;10406364;28;20081;-81
2022/04/27 04:35:56;;;;;;;5.60;5.10;;;;;;;3.89;100.00;98858.41;10318064;28;20425;-82
2022/04/27 04:41:02;;;;;;;5.60;5.10;;;;;;;3.93;100.00;98875.91;10363619;28;20119;-84
2022/04/27 04:46:12;;;;;;;5.78;5.28;;;;;;;3.97;100.00;98880.03;10366346;28;20426;-81
2022/04/27 04:51:28;;;;;;;5.25;4.80;;;;;;;4.01;100.00;98886.88;10362868;28;20072;-82
2022/04/27 04:56:58;;;;;;;5.63;5.13;;;;;;;4.08;100.00;98899.75;10364106;28;21322;-81
2022/04/27 05:02:40;;;;;;;6.50;5.90;;;;;;;4.12;100.00;98903.94;10353998;28;20525;-83
2022/04/27 05:07:52;;;;;;;5.80;5.20;;;;;;;4.19;100.00;98910.50;10184751;28;5001793;-82
2022/04/27 05:13:15;;;;;;;10.20;7.22;;;;;;;4.27;100.00;98913.50;10363654;28;20069;-82
2022/04/27 05:18:50;;;;;;;10.38;7.28;;;;;;;4.32;100.00;98916.69;10348631;28;20181;-84
2022/04/27 05:24:21;;;;;;;8.20;6.35;;;;;;;4.46;100.00;98930.88;10358241;28;20116;-84
2022/04/27 05:35:40;;;;;;;7.83;6.10;;;;;;;4.67;100.00;98938.28;10359746;28;21001;-83
2022/04/27 05:41:10;;;;;;;9.32;6.13;;;;;;;4.77;100.00;98945.53;10360062;28;20116;-83
2022/04/27 05:46:40;;;;;;;8.05;5.47;;;;;;;4.82;100.00;98957.69;10345324;28;20057;-82
2022/04/27 05:52:01;;;;;;;5.60;5.00;;;;;;;4.89;100.00;98962.44;10369961;28;20541;-81
2022/04/27 05:57:13;;;;;;;4.50;4.10;;;;;;;5.04;100.00;98968.50;10369296;28;20054;-82
2022/04/27 06:02:30;;;;;;;4.70;4.30;;;;;;;5.14;100.00;98984.69;10355840;28;20520;-82
2022/04/27 06:07:36;;;;;;;5.13;4.00;;;;;;;5.24;100.00;98995.56;10371487;28;20065;-82
2022/04/27 06:12:46;;;;;;;4.93;4.20;;;;;;;5.34;100.00;98996.59;10359143;28;20050;-82
2022/04/27 06:18:23;;;;;;;6.57;4.13;;;;;;;5.46;100.00;98999.31;10365587;28;20068;-84
2022/04/27 06:23:27;;;;;;;7.35;5.10;;;;;;;5.61;100.00;99005.31;10385960;28;20057;-83
2022/04/27 06:28:30;;;;;;;6.97;4.90;;;;;;;5.73;100.00;99006.22;10368130;28;21059;-83
2022/04/27 06:33:36;;;;;;;4.90;4.50;;;;;;;5.85;100.00;99016.84;10353595;28;20114;-83
2022/04/27 06:38:42;;;;;;;4.82;4.43;;;;;;;5.97;100.00;99008.84;10357930;28;20049;-84
2022/04/27 06:44:08;;;;;;;4.97;4.50;;;;;;;6.08;100.00;99011.59;10361586;28;20038;-84
2022/04/27 06:49:30;;;;;;;5.05;4.55;;;;;;;6.16;100.00;99009.19;10361425;28;20053;-83
2022/04/27 06:54:52;;;;;;;5.50;5.00;;;;;;;6.27;100.00;99021.72;10367020;28;20034;-81
2022/04/27 07:00:15;;;;;;;5.10;4.70;;;;;;;6.46;100.00;99021.13;10358465;28;20058;-82
2022/04/27 07:05:20;;;;;;;6.43;4.50;;;;;;;6.69;100.00;99023.00;10355954;28;20056;-82
2022/04/27 07:10:23;;;;;;;4.28;3.88;;;;;;;6.91;100.00;99019.44;10374289;28;20042;-82
2022/04/27 07:15:26;;;;;;;6.30;3.72;;;;;;;7.07;100.00;99014.56;10359164;28;20114;-81
2022/04/27 07:20:30;;;;;;;4.05;3.65;;;;;;;7.26;100.00;99018.41;10355092;28;20061;-81
2022/04/27 07:25:33;;;;;;;5.00;4.07;;;;;;;7.52;100.00;99036.84;10356419;28;20085;-82
2022/04/27 07:30:36;;;;;;;4.68;4.00;;;;;;;7.72;100.00;99032.53;10354034;28;20513;-81
2022/04/27 07:35:42;;;;;;;3.85;3.50;;;;;;;7.85;100.00;99040.38;10351774;28;20046;-82
2022/04/27 07:40:46;;;;;;;5.03;3.47;;;;;;;8.07;100.00;99033.22;10376895;28;20064;-80
2022/04/27 07:45:49;;;;;;;4.45;3.15;;;;;;;8.23;100.00;99028.25;10358576;28;20057;-79
2022/04/27 07:50:53;;;;;;;4.50;3.40;;;;;;;8.45;100.00;99039.81;10359466;28;20068;-83
2022/04/27 07:55:56;;;;;;;4.03;3.60;;;;;;;8.63;100.00;99046.31;10360215;28;20116;-81
2022/04/27 08:01:00;;;;;;;4.32;3.50;;;;;;;8.80;100.00;99046.66;10355442;28;20070;-81
2022/04/27 08:06:05;;;;;;;2.90;2.70;;;;;;;9.15;100.00;99066.06;10374494;28;20061;-80
2022/04/27 08:11:10;;;;;;;3.72;2.90;;;;;;;9.40;100.00;99048.56;10357379;28;20042;-81
2022/04/27 08:16:13;;;;;;;3.35;2.70;;;;;;;9.78;100.00;99046.94;10369436;28;20457;-81
2022/04/27 08:21:21;;;;;;;4.65;2.40;;;;;;;10.08;100.00;99053.16;10357209;28;20129;-79
2022/04/27 08:26:24;;;;;;;2.53;2.33;;;;;;;10.41;100.00;99050.19;10352135;28;20215;-81
2022/04/27 08:31:27;;;;;;;3.72;2.72;;;;;;;10.65;100.00;99060.47;10348670;28;20048;-81
2022/04/27 08:36:31;;;;;;;2.50;2.30;;;;;;;10.89;100.00;99051.00;10366905;28;20602;-82
2022/04/27 08:41:35;;;;;;;3.55;2.72;;;;;;;11.09;100.00;99058.03;10369075;28;20049;-79
2022/04/27 08:46:38;;;;;;;2.92;2.72;;;;;;;11.32;100.00;99060.34;10362748;28;20129;-80
2022/04/27 08:51:44;;;;;;;2.92;2.63;;;;;;;11.45;100.00;99056.44;10374907;28;20298;-82
2022/04/27 08:56:51;;;;;;;2.85;2.40;;;;;;;11.68;100.00;99063.13;10361817;28;20058;-82
2022/04/27 09:01:55;;;;;;;2.85;2.60;;;;;;;11.77;100.00;99072.13;10363256;28;20046;-80
2022/04/27 09:07:16;;;;;;;2.40;2.20;;;;;;;11.86;100.00;99073.06;10371990;28;20728;-81
2022/04/27 09:12:20;;;;;;;5.75;2.50;;;;;;;11.99;100.00;99076.25;10377056;28;20222;-81
2022/04/27 09:22:46;;;;;;;4.00;2.33;;;;;;;12.10;100.00;99071.63;10372560;28;20621;-79
2022/04/27 09:27:54;;;;;;;4.53;2.40;;;;;;;12.14;100.00;99079.25;10349060;28;20145;-79
2022/04/27 09:33:00;;;;;;;3.50;2.53;;;;;;;12.17;100.00;99075.41;10355702;28;20049;-79
2022/04/27 09:38:15;;;;;;;4.88;2.67;;;;;;;12.19;100.00;99073.38;10392135;28;20173;-80
2022/04/27 09:43:42;;;;;;;3.33;2.67;;;;;;;12.33;100.00;99077.41;10354064;28;20113;-80
2022/04/27 09:48:48;;;;;;;3.00;2.63;;;;;;;12.43;100.00;99077.28;10351629;28;20121;-78
2022/04/27 09:53:53;;;;;;;4.45;2.63;;;;;;;12.66;100.00;99068.66;10360567;28;20433;-79
2022/04/27 09:59:00;;;;;;;2.60;2.40;;;;;;;12.88;100.00;99068.13;10366010;28;21029;-79
2022/04/27 10:04:05;;;;;;;2.60;2.40;;;;;;;13.06;100.00;99068.06;10362219;28;20042;-79
2022/04/27 10:09:10;;;;;;;4.28;2.40;;;;;;;13.15;100.00;99081.66;10341672;28;20057;-79
2022/04/27 10:14:33;;;;;;;4.97;2.63;;;;;;;13.32;100.00;99074.44;10338469;28;20505;-80
2022/04/27 10:19:36;;;;;;;3.80;2.97;;;;;;;13.44;100.00;99075.88;10339049;28;20056;-80
2022/04/27 10:24:50;;;;;;;3.83;2.55;;;;;;;13.48;100.00;99076.41;10341907;28;20041;-81
2022/04/27 10:30:00;;;;;;;4.45;2.60;;;;;;;13.43;100.00;99076.88;10344388;28;20631;-81
2022/04/27 10:35:17;;;;;;;4.20;2.67;;;;;;;13.56;100.00;99066.44;10337076;28;20050;-81
2022/04/27 10:40:33;;;;;;;3.95;2.50;;;;;;;13.66;100.00;99068.16;10346886;28;20138;-81
2022/04/27 10:45:37;;;;;;;3.58;2.70;;;;;;;13.83;100.00;99069.03;10341124;28;20145;-80
2022/04/27 10:50:40;;;;;;;3.22;2.90;;;;;;;13.70;100.00;99069.53;10339436;28;20046;-80
2022/04/27 10:55:53;;;;;;;6.03;2.55;;;;;;;13.82;100.00;99070.88;10352551;28;20141;-80
2022/04/27 11:01:31;;;;;;;3.40;2.67;;;;;;;14.05;100.00;99072.97;10356891;28;20060;-81
2022/04/27 11:07:03;;;;;;;3.00;2.40;;;;;;;14.27;100.00;99066.03;10340668;28;20140;-81
2022/04/27 11:12:08;;;;;;;2.80;2.60;;;;;;;14.01;100.00;99072.44;10339485;28;20062;-80
2022/04/27 11:17:13;;;;;;;3.30;2.78;;;;;;;14.37;100.00;99071.28;10335628;28;20041;-80
2022/04/27 11:22:18;;;;;;;3.20;2.30;;;;;;;14.48;100.00;99065.53;10335971;28;20226;-80
2022/04/27 11:27:29;;;;;;;3.28;2.47;;;;;;;14.23;95.78;99075.50;10338821;28;20046;-80
2022/04/27 11:32:32;;;;;;;2.92;2.40;;;;;;;14.53;100.00;99067.72;10345723;28;20520;-81
2022/04/27 11:37:37;;;;;;;2.88;2.20;;;;;;;14.90;100.00;99070.91;10354176;28;20393;-80
2022/04/27 11:42:46;;;;;;;2.25;2.05;;;;;;;15.18;93.39;99065.06;10354915;28;20042;-81
2022/04/27 11:48:01;;;;;;;1.88;1.65;;;;;;;15.10;76.32;99068.66;10346278;28;20572;-81
2022/04/27 11:53:05;;;;;;;4.35;2.20;;;;;;;15.39;89.65;99067.19;10347082;28;20065;-80
2022/04/27 11:58:10;;;;;;;1.90;1.70;;;;;;;15.61;82.58;99070.97;10350652;28;20066;-80
2022/04/27 12:03:13;;;;;;;3.03;2.00;;;;;;;15.88;75.85;99066.09;10366919;28;20054;-81
2022/04/27 12:08:20;;;;;;;3.50;1.88;;;;;;;15.71;71.66;99066.16;10356243;28;20574;-80
2022/04/27 12:13:24;;;;;;;2.97;2.20;;;;;;;15.69;76.22;99065.50;10343189;28;20046;-81
2022/04/27 12:18:28;;;;;;;1.95;1.73;;;;;;;15.82;69.43;99070.34;10356284;28;20920;-80
2022/04/27 12:23:38;;;;;;;1.98;1.70;;;;;;;15.62;68.03;99069.94;10358455;28;20059;-80
2022/04/27 12:28:46;;;;;;;2.00;1.75;;;;;;;15.56;71.06;99070.66;10345756;28;20042;-81
2022/04/27 12:33:50;;;;;;;1.75;1.65;;;;;;;15.68;79.20;99063.81;10375521;28;20565;-82
2022/04/27 12:38:58;;;;;;;2.78;1.92;;;;;;;15.94;75.63;99056.38;10358242;28;20160;-80
2022/04/27 12:44:07;;;;;;;4.13;1.80;;;;;;;16.06;66.67;99063.09;10360986;28;20085;-79
2022/04/27 12:49:31;;;;;;;1.80;1.50;;;;;;;15.89;63.96;99056.91;10356896;28;20053;-78
2022/04/27 12:54:36;;;;;;;2.13;1.58;;;;;;;15.68;64.92;99061.09;10350323;28;20132;-76
2022/04/27 12:59:59;;;;;;;2.60;1.50;;;;;;;15.76;61.49;99062.06;10349129;28;20041;-78
2022/04/27 13:05:02;;;;;;;1.90;1.60;;;;;;;15.43;63.23;99064.97;10353792;28;20120;-78
2022/04/27 13:15:29;;;;;;;2.65;1.73;;;;;;;15.71;59.14;99051.72;10380235;28;20175;-76
2022/04/27 13:20:32;;;;;;;1.98;1.10;;;;;;;16.23;53.47;99052.94;10383360;28;20470;-76
2022/04/27 13:25:35;;;;;;;2.40;1.60;;;;;;;16.72;57.95;99050.78;10349572;28;20089;-78
2022/04/27 13:30:40;;;;;;;3.90;1.63;;;;;;;16.37;57.55;99055.88;10370653;28;20056;-80
2022/04/27 13:35:43;;;;;;;2.55;1.60;;;;;;;16.36;60.44;99048.75;10361796;28;20054;-78
2022/04/27 13:40:47;;;;;;;1.50;1.38;;;;;;;16.76;57.74;99049.38;10368876;28;20076;-77
2022/04/27 13:45:51;;;;;;;3.60;1.50;;;;;;;17.23;57.47;99050.91;10374467;28;20050;-77
2022/04/27 13:50:55;;;;;;;1.80;1.10;;;;;;;17.81;55.83;99042.00;10373876;28;20048;-76
2022/04/27 13:55:58;;;;;;;2.15;1.10;;;;;;;18.14;53.26;99041.50;10359617;28;20042;-78
2022/04/27 14:01:03;;;;;;;2.97;1.17;;;;;;;18.01;48.38;99044.09;10346245;28;20050;-79
2022/04/27 14:06:07;;;;;;;1.48;1.00;;;;;;;17.41;48.83;99053.22;10352946;28;20250;-78
2022/04/27 14:21:58;;;;;;;2.70;1.30;;;;;;;15.78;52.85;99047.25;10324407;28;20526;-78
2022/04/27 14:27:01;;;;;;;2.42;1.23;;;;;;;15.61;52.31;99040.25;10355863;28;20096;-81
2022/04/27 14:32:07;;;;;;;1.20;1.10;;;;;;;15.51;53.55;99035.03;10345151;28;20052;-80
2022/04/27 14:37:11;;;;;;;1.45;1.30;;;;;;;15.46;56.01;99032.84;10343446;28;20181;-78
2022/04/27 14:42:15;;;;;;;2.60;1.38;;;;;;;15.50;56.42;99044.19;10346438;28;20451;-80
2022/04/27 14:47:22;;;;;;;1.85;1.20;;;;;;;15.69;55.85;99032.91;10350781;28;20490;-80
2022/04/27 14:52:25;;;;;;;1.77;1.30;;;;;;;16.25;54.03;99028.25;10341548;28;20049;-81
2022/04/27 14:57:29;;;;;;;1.70;1.33;;;;;;;17.09;52.31;99024.56;10354900;28;20057;-81
2022/04/27 15:02:33;;;;;;;1.73;1.38;;;;;;;17.40;48.94;99032.47;10360482;28;20057;-79
2022/04/27 15:07:37;;;;;;;4.05;1.30;;;;;;;17.85;50.53;99026.09;10359003;28;20526;-78
2022/04/27 15:12:40;;;;;;;3.90;1.30;;;;;;;18.45;47.74;99018.47;10345725;28;20054;-81
2022/04/27 15:17:45;;;;;;;2.63;1.17;;;;;;;17.91;46.97;99027.19;10344933;28;20059;-80
2022/04/27 15:22:48;;;;;;;2.33;1.08;;;;;;;18.13;47.67;99023.44;10359627;28;20050;-80
2022/04/27 15:27:52;;;;;;;1.35;0.90;;;;;;;18.24;46.54;99029.41;10343614;28;20069;-80
2022/04/27 15:32:57;;;;;;;1.52;1.10;;;;;;;18.94;45.52;99029.53;10341578;28;20481;-80
2022/04/27 15:38:00;;;;;;;1.98;0.88;;;;;;;19.28;43.96;99030.56;10336075;28;20053;-79
2022/04/27 15:43:06;;;;;;;1.63;1.00;;;;;;;18.92;42.15;99032.47;10341224;28;20050;-81
2022/04/27 15:48:30;;;;;;;2.35;0.90;;;;;;;19.09;44.62;99026.69;10354883;28;20060;-78
2022/04/27 15:53:34;;;;;;;1.58;1.00;;;;;;;19.64;43.32;99032.19;10345155;28;20141;-80
2022/04/27 15:58:37;;;;;;;1.30;1.00;;;;;;;19.28;44.43;99025.09;10352047;28;20050;-78
2022/04/27 16:03:42;;;;;;;1.20;1.00;;;;;;;19.48;44.31;99032.53;10347419;28;20046;-78
2022/04/27 16:08:45;;;;;;;2.08;1.02;;;;;;;19.83;42.80;99027.81;10362138;28;20054;-79
2022/04/27 16:13:49;;;;;;;2.78;1.33;;;;;;;19.73;42.53;99029.25;10347300;28;20043;-78
2022/04/27 16:18:53;;;;;;;1.95;1.20;;;;;;;19.58;44.10;99034.88;10350513;28;20058;-79
2022/04/27 16:23:56;;;;;;;2.80;0.90;;;;;;;19.75;42.77;99041.69;10363154;28;20053;-79
2022/04/27 16:29:00;;;;;;;1.02;0.88;;;;;;;19.30;42.48;99039.41;10349078;28;20516;-79
2022/04/27 16:34:05;;;;;;;2.13;0.80;;;;;;;19.07;41.38;99045.16;10357212;28;20134;-80
2022/04/27 16:39:09;;;;;;;3.10;0.90;;;;;;;18.90;41.38;99047.31;10356215;28;21025;-80
2022/04/27 16:44:12;;;;;;;1.85;0.70;;;;;;;18.70;42.26;99050.78;10373013;28;20683;-80
2022/04/27 16:49:17;;;;;;;1.08;0.80;;;;;;;18.25;42.30;99061.09;10373384;28;20109;-80
2022/04/27 16:54:21;;;;;;;0.90;0.90;;;;;;;18.35;43.04;99058.88;10378129;28;20054;-81
2022/04/27 16:59:27;;;;;;;3.65;1.00;;;;;;;18.24;43.21;99062.16;10367553;28;20046;-79
2022/04/27 17:04:32;;;;;;;4.90;0.73;;;;;;;17.65;42.41;99066.75;10380476;28;20057;-78
2022/04/27 17:09:35;;;;;;;2.08;0.90;;;;;;;17.37;44.58;99073.75;10372082;28;20840;-78
2022/04/27 17:14:39;;;;;;;0.85;0.80;;;;;;;17.13;44.97;99080.31;10340047;28;20499;-80
2022/04/27 17:19:43;;;;;;;1.45;0.98;;;;;;;16.93;45.98;99082.72;10364957;28;20054;-81
2022/04/27 17:24:46;;;;;;;1.98;1.00;;;;;;;16.75;47.14;99085.81;10354041;28;20034;-82
2022/04/27 17:29:49;;;;;;;2.03;1.20;;;;;;;16.26;47.76;99087.91;10351519;28;20057;-79
2022/04/27 17:34:54;;;;;;;1.70;1.10;;;;;;;16.08;49.15;99093.66;10340358;28;20046;-80
2022/04/27 17:39:57;;;;;;;3.85;1.40;;;;;;;15.85;50.31;99091.75;10345440;28;20041;-80
2022/04/27 17:45:01;;;;;;;1.40;1.20;;;;;;;15.59;51.15;99091.19;10349263;28;20057;-80
2022/04/27 17:50:08;;;;;;;1.40;1.10;;;;;;;15.50;50.79;99101.22;10342059;28;20054;-80
2022/04/27 17:55:12;;;;;;;1.63;1.15;;;;;;;15.33;51.58;99109.47;10338012;28;20054;-76
2022/04/27 18:00:16;;;;;;;4.13;1.30;;;;;;;15.07;52.59;99109.69;10352538;28;20124;-78
2022/04/27 18:05:27;;;;;;;1.60;1.10;;;;;;;14.82;52.01;99117.88;10357702;28;20053;-77
2022/04/27 18:10:32;;;;;;;1.83;1.40;;;;;;;14.60;53.52;99120.25;10350368;28;20502;-80
2022/04/27 18:15:47;;;;;;;2.40;1.50;;;;;;;14.48;54.33;99132.44;10373991;28;20066;-81
2022/04/27 18:20:53;;;;;;;3.53;1.48;;;;;;;14.23;55.27;99134.28;10368590;28;20054;-81
2022/04/27 18:25:56;;;;;;;2.40;1.40;;;;;;;14.05;56.98;99135.28;10352995;28;20409;-81
2022/04/27 18:31:00;;;;;;;1.67;1.45;;;;;;;13.87;58.89;99141.69;10370873;28;20145;-81
2022/04/27 18:36:06;;;;;;;4.05;1.40;;;;;;;13.75;59.51;99153.81;10350019;28;20045;-84
2022/04/27 18:41:09;;;;;;;2.95;1.67;;;;;;;13.65;60.38;99163.94;10353618;28;20054;-84
2022/04/27 18:51:34;;;;;;;5.00;1.70;;;;;;;13.56;61.67;99161.22;10350335;28;20111;-83
2022/04/27 18:56:37;;;;;;;2.00;1.60;;;;;;;13.58;61.31;99169.16;10353600;28;20081;-83
2022/04/27 19:01:41;;;;;;;2.13;1.83;;;;;;;13.59;61.88;99170.84;10355608;28;20177;-81
2022/04/27 19:06:46;;;;;;;1.75;1.60;;;;;;;13.59;62.87;99173.56;10368625;28;20351;-83
2022/04/27 19:11:50;;;;;;;5.55;2.00;;;;;;;13.58;63.71;99176.44;10365142;28;20042;-82
2022/04/27 19:16:53;;;;;;;2.40;1.95;;;;;;;13.58;64.46;99179.16;10346226;28;20049;-83
2022/04/27 19:21:58;;;;;;;2.35;1.80;;;;;;;13.54;65.17;99190.28;10370398;28;20056;-83
2022/04/27 19:27:02;;;;;;;2.78;2.00;;;;;;;13.50;66.26;99183.50;10371302;28;20042;-82
2022/04/27 19:32:05;;;;;;;3.00;2.03;;;;;;;13.47;68.34;99180.25;10355954;28;20077;-81
2022/04/27 19:37:11;;;;;;;4.00;2.03;;;;;;;13.45;69.31;99185.84;10370408;28;20046;-79
2022/04/27 19:42:14;;;;;;;3.42;1.90;;;;;;;13.40;72.04;99183.63;10343150;28;20050;-78
2022/04/27 19:47:19;;;;;;;2.42;1.98;;;;;;;13.36;73.76;99187.63;10333903;28;20040;-77
2022/04/27 19:57:40;;;;;;;3.42;1.85;;;;;;;13.24;80.29;99199.72;10333673;28;20070;-77
2022/04/27 20:02:43;;;;;;;1.95;1.75;;;;;;;13.15;84.50;99206.94;10340689;28;20513;-78
2022/04/27 20:07:48;;;;;;;4.03;1.90;;;;;;;13.10;81.50;99203.88;10346868;28;20706;-78
2022/04/27 20:12:51;;;;;;;3.95;1.88;;;;;;;13.09;81.58;99207.59;10344746;28;20042;-76
2022/04/27 20:17:54;;;;;;;2.88;2.10;;;;;;;13.07;81.11;99201.47;10340203;28;20036;-77
2022/04/27 20:22:59;;;;;;;4.15;2.00;;;;;;;13.03;81.52;99202.78;10339728;28;20558;-74
2022/04/27 20:28:05;;;;;;;6.07;2.28;;;;;;;13.00;81.87;99214.78;10334659;28;20566;-74
2022/04/27 20:33:09;;;;;;;2.67;2.00;;;;;;;12.97;84.64;99206.97;10339530;28;20132;-75
2022/04/27 20:38:14;;;;;;;3.03;2.10;;;;;;;12.88;100.00;99208.75;10367499;28;20049;-76
2022/04/27 20:43:17;;;;;;;2.60;1.88;;;;;;;12.74;100.00;99220.16;10374129;28;20049;-75
2022/04/27 20:48:21;;;;;;;2.10;1.73;;;;;;;12.62;100.00;99215.00;10343686;28;20049;-75
2022/04/27 20:53:25;;;;;;;2.75;2.03;;;;;;;12.52;100.00;99216.06;10342627;28;20093;-74
2022/04/27 20:58:29;;;;;;;2.33;2.10;;;;;;;12.39;100.00;99216.44;10357163;28;20184;-74
2022/04/27 21:03:32;;;;;;;2.92;2.10;;;;;;;12.31;100.00;99220.75;10343468;28;20052;-75
2022/04/27 21:08:37;;;;;;;2.17;1.92;;;;;;;12.21;100.00;99225.38;10350473;28;20073;-74
2022/04/27 21:13:40;;;;;;;4.47;2.10;;;;;;;12.07;100.00;99226.75;10349102;28;20160;-76
2022/04/27 21:18:43;;;;;;;3.70;2.10;;;;;;;11.94;100.00;99235.16;10347801;28;20574;-74
2022/04/27 21:23:47;;;;;;;3.35;2.47;;;;;;;11.82;100.00;99239.03;10359493;28;20112;-74
2022/04/27 21:28:51;;;;;;;6.97;2.70;;;;;;;11.70;100.00;99241.09;10342416;28;20046;-74
2022/04/27 21:33:54;;;;;;;2.40;2.00;;;;;;;11.59;100.00;99241.28;10342292;28;20058;-76
2022/04/27 21:38:59;;;;;;;3.13;2.40;;;;;;;11.43;100.00;99247.31;10344453;28;20124;-75
2022/04/27 21:44:02;;;;;;;3.88;2.20;;;;;;;11.29;100.00;99254.88;10342890;28;20477;-75
2022/04/27 21:49:06;;;;;;;4.90;2.10;;;;;;;11.05;100.00;99258.88;10347072;28;20139;-75
2022/04/27 21:54:11;;;;;;;4.78;2.33;;;;;;;10.90;100.00;99255.78;10341259;28;20426;-75
2022/04/27 21:59:15;;;;;;;2.83;2.38;;;;;;;10.84;100.00;99268.97;10340473;28;20119;-76
2022/04/27 22:04:19;;;;;;;5.07;2.08;;;;;;;10.78;100.00;99267.69;10342914;28;20050;-76
2022/04/27 22:09:26;;;;;;;3.50;2.10;;;;;;;10.74;100.00;99268.97;10344124;28;20049;-76
2022/04/27 22:14:29;;;;;;;3.42;2.00;;;;;;;10.70;100.00;99267.56;10344714;28;20050;-76
2022/04/27 22:19:32;;;;;;;2.65;2.10;;;;;;;10.61;100.00;99272.78;10333802;28;20058;-76
2022/04/27 22:24:36;;;;;;;2.20;1.90;;;;;;;10.53;100.00;99269.94;10335519;28;20045;-76
2022/04/27 22:29:40;;;;;;;3.35;2.00;;;;;;;10.49;100.00;99276.59;10339984;28;20045;-77
2022/04/27 22:34:45;;;;;;;4.18;2.20;;;;;;;10.42;100.00;99279.00;10349673;28;20383;-77
2022/04/27 22:39:49;;;;;;;3.20;1.92;;;;;;;10.37;100.00;99280.38;10342028;28;20296;-75
2022/04/27 22:44:52;;;;;;;4.05;2.00;;;;;;;10.28;100.00;99277.53;10350649;28;20057;-76
2022/04/27 22:49:55;;;;;;;2.45;1.80;;;;;;;10.21;100.00;99276.38;10339476;28;20046;-76
2022/04/27 22:55:00;;;;;;;2.60;2.10;;;;;;;10.11;100.00;99275.50;10162053;28;5001642;-76
2022/04/27 23:00:04;;;;;;;3.13;2.28;;;;;;;10.04;100.00;99283.28;10334537;28;20672;-76
2022/04/27 23:05:09;;;;;;;3.20;2.20;;;;;;;9.97;100.00;99291.06;10335250;28;20046;-76
2022/04/27 23:15:36;;;;;;;3.13;1.98;;;;;;;9.83;100.00;99291.41;10335790;28;20524;-76
2022/04/27 23:20:39;;;;;;;4.95;2.47;;;;;;;9.71;100.00;99294.19;10347526;28;20058;-76
2022/04/27 23:25:45;;;;;;;3.78;2.38;;;;;;;9.65;100.00;99283.13;10336756;28;20387;-76
2022/04/27 23:30:48;;;;;;;3.05;2.30;;;;;;;9.62;100.00;99296.81;10335268;28;20061;-77
2022/04/27 23:35:51;;;;;;;2.58;2.33;;;;;;;9.52;100.00;99289.56;10340133;28;20046;-76
2022/04/27 23:40:56;;;;;;;3.03;2.22;;;;;;;9.32;100.00;99287.75;10338718;28;20503;-76
2022/04/27 23:46:00;;;;;;;4.65;2.17;;;;;;;9.26;100.00;99283.75;10336072;28;20121;-76
2022/04/27 23:51:04;;;;;;;3.05;2.10;;;;;;;9.21;100.00;99280.59;10346018;28;22380;-76
2022/04/27 23:56:10;;;;;;;4.18;2.50;;;;;;;9.14;100.00;99280.25;10357713;28;20049;-75
